Time;durP1;ratioP1;P1;durP2;ratioP2;P2;SDS_P1;SDS_P2;PMS_P1;PMS_P2;Temp;Humidity;BMP_temperature;BMP_pressure;BME280_temperature;BME280_humidity;BME280_pressure;Samples;Min_cycle;Max_cycle;Signal;HPM_P1;HPM_P2
2022/01/18 00:01:51;;;;;;;;;87.67;66.33;;;;;10.14;70.12;103536.59;5098438;27;61822;-77
2022/01/18 00:04:17;;;;;;;;;84.67;65.00;;;;;10.11;70.18;103540.63;5083510;28;61987;-77
2022/01/18 00:06:46;;;;;;;;;87.00;65.67;;;;;10.11;69.84;103506.50;5082799;28;62251;-77
2022/01/18 00:09:12;;;;;;;;;80.33;60.33;;;;;10.07;69.96;103522.75;5081938;28;62107;-76
2022/01/18 00:11:48;;;;;;;;;86.00;64.00;;;;;10.08;69.51;103537.75;5081902;28;62108;-77
2022/01/18 00:14:41;;;;;;;;;87.00;64.67;;;;;10.04;69.85;103519.06;5083686;28;61968;-77
2022/01/18 00:17:18;;;;;;;;;86.33;65.00;;;;;10.04;69.42;103518.16;5082395;28;61947;-77
2022/01/18 00:19:53;;;;;;;;;84.00;64.00;;;;;10.01;69.82;103531.00;5083094;28;62302;-77
2022/01/18 00:22:19;;;;;;;;;86.00;65.33;;;;;10.02;69.60;103541.63;5083517;28;61887;-77
2022/01/18 00:24:45;;;;;;;;;87.33;64.67;;;;;10.00;69.73;103516.03;5082631;28;62402;-77
2022/01/18 00:27:14;;;;;;;;;85.00;65.67;;;;;10.01;69.54;103523.16;5082339;28;62768;-77
2022/01/18 00:29:48;;;;;;;;;75.67;60.67;;;;;9.98;69.38;103534.28;5098833;27;61863;-77
2022/01/18 00:32:32;;;;;;;;;86.67;66.00;;;;;9.95;69.35;103523.50;5082854;28;61830;-77
2022/01/18 00:34:57;;;;;;;;;85.67;65.00;;;;;9.93;69.07;103506.69;5082689;27;61995;-77
2022/01/18 00:37:33;;;;;;;;;83.00;63.00;;;;;9.93;69.57;103525.06;5082031;28;61768;-77
2022/01/18 00:39:58;;;;;;;;;84.33;63.00;;;;;9.93;69.85;103526.78;5081664;28;62699;-77
2022/01/18 00:42:24;;;;;;;;;86.33;59.33;;;;;9.91;69.57;103504.72;5083176;27;61942;-77
2022/01/18 00:44:50;;;;;;;;;79.00;63.33;;;;;9.93;69.39;103516.28;5082197;27;61806;-77
2022/01/18 00:47:15;;;;;;;;;81.33;63.00;;;;;9.91;69.69;103520.47;5082286;28;61744;-77
2022/01/18 00:49:45;;;;;;;;;85.33;61.33;;;;;9.91;69.38;103523.09;5081991;28;62034;-77
2022/01/18 00:52:10;;;;;;;;;88.33;67.00;;;;;9.86;70.37;103500.75;5082890;27;61704;-77
2022/01/18 00:54:40;;;;;;;;;87.33;66.33;;;;;9.82;70.05;103510.97;5082894;27;61980;-76
2022/01/18 00:57:06;;;;;;;;;87.33;65.67;;;;;9.83;69.82;103523.31;5081319;27;62062;-77
2022/01/18 00:59:32;;;;;;;;;81.00;61.00;;;;;9.83;69.86;103515.44;5082357;27;62122;-76
2022/01/18 01:01:58;;;;;;;;;84.33;63.33;;;;;9.82;69.44;103510.97;5082123;27;62215;-76
2022/01/18 01:04:27;;;;;;;;;83.67;60.67;;;;;9.82;69.27;103505.72;5082436;27;61690;-76
2022/01/18 01:06:53;;;;;;;;;82.33;63.00;;;;;9.83;69.26;103522.38;5080580;28;63981;-76
2022/01/18 01:09:19;;;;;;;;;91.00;67.33;;;;;9.80;69.48;103519.47;5082178;28;61973;-76
2022/01/18 01:11:44;;;;;;;;;84.67;62.67;;;;;9.78;69.37;103503.59;5081220;28;61855;-76
2022/01/18 01:14:17;;;;;;;;;79.00;61.33;;;;;9.81;69.69;103511.75;5080856;28;62062;-77
2022/01/18 01:43:22;;;;;;;;;66.00;51.00;;;;;9.66;70.16;103522.53;5081706;28;61642;-76
2022/01/18 01:45:49;;;;;;;;;66.75;48.50;;;;;9.64;70.78;103506.66;5082269;28;62114;-76
2022/01/18 01:48:17;;;;;;;;;59.50;45.50;;;;;9.57;71.33;103520.88;5080743;28;61946;-76
2022/01/18 01:53:10;;;;;;;;;48.00;40.00;;;;;9.59;71.08;103521.03;5081777;28;62180;-76
2022/01/18 01:55:36;;;;;;;;;49.00;40.00;;;;;9.66;71.13;103514.66;5081642;28;61848;-76
2022/01/18 01:58:02;;;;;;;;;40.75;36.00;;;;;9.73;71.59;103511.84;5096403;27;65267;-76
2022/01/18 02:00:27;;;;;;;;;47.00;36.00;;;;;9.77;71.08;103511.34;5081793;28;61708;-76
2022/01/18 02:02:53;;;;;;;;;36.50;34.00;;;;;9.82;71.03;103518.84;5084015;28;61870;-76
2022/01/18 02:05:20;;;;;;;;;42.25;36.00;;;;;9.83;70.75;103509.25;5084892;28;62560;-76
2022/01/18 02:07:46;;;;;;;;;37.75;32.50;;;;;9.82;70.86;103510.03;5083529;28;64785;-76
2022/01/18 02:10:11;;;;;;;;;37.50;32.75;;;;;9.86;71.13;103517.41;5084891;28;62035;-76
2022/01/18 02:12:38;;;;;;;;;38.75;35.75;;;;;9.85;70.81;103506.78;5084652;28;61896;-76
2022/01/18 02:15:12;;;;;;;;;38.75;31.75;;;;;9.86;71.03;103512.16;5085272;28;61858;-76
2022/01/18 02:23:23;;;;;;;;;43.50;37.25;;;;;9.89;71.09;103516.78;5085170;28;61748;-77
2022/01/18 02:25:49;;;;;;;;;37.25;24.75;;;;;9.88;70.95;103521.09;5084718;27;61741;-76
2022/01/18 02:28:18;;;;;;;;;43.00;33.25;;;;;9.90;70.89;103506.44;5084201;28;61893;-76
2022/01/18 02:30:44;;;;;;;;;34.00;25.25;;;;;9.96;70.78;103511.28;5100700;27;61993;-76
2022/01/18 02:33:10;;;;;;;;;26.25;22.00;;;;;9.97;70.91;103518.41;5084793;28;61955;-77
2022/01/18 02:35:36;;;;;;;;;32.25;26.25;;;;;10.03;71.00;103498.88;5083258;28;61638;-76
2022/01/18 02:38:03;;;;;;;;;29.75;24.00;;;;;10.08;70.53;103496.66;5074196;28;61722;-76
2022/01/18 02:40:30;;;;;;;;;33.75;28.25;;;;;9.96;70.54;103506.03;5084666;28;62131;-76
2022/01/18 02:43:46;;;;;;;;;33.75;25.00;;;;;9.86;71.19;103501.69;5084231;28;62024;-76
2022/01/18 02:45:47;;;;;;;;;29.25;23.50;;;;;9.91;70.79;103508.25;5084620;28;62110;-76
2022/01/18 02:48:13;;;;;;;;;33.25;21.00;;;;;9.99;70.56;103498.47;5083729;28;63047;-76
2022/01/18 02:50:38;;;;;;;;;32.75;22.25;;;;;10.00;70.50;103501.25;5084543;28;61776;-76
2022/01/18 02:53:03;;;;;;;;;37.50;22.00;;;;;9.92;70.37;103503.91;5100512;27;61912;-76
2022/01/18 02:55:29;;;;;;;;;25.00;18.50;;;;;9.80;70.77;103488.91;5083976;28;61667;-77
2022/01/18 02:58:02;;;;;;;;;28.00;20.75;;;;;9.90;71.02;103502.88;5084067;28;61958;-76
2022/01/18 03:00:32;;;;;;;;;27.50;24.00;;;;;10.02;70.41;103506.59;5084813;28;61839;-77
2022/01/18 03:03:13;;;;;;;;;31.00;24.75;;;;;10.10;70.90;103502.97;5084599;28;61786;-76
2022/01/18 03:05:40;;;;;;;;;29.00;26.50;;;;;10.16;70.25;103502.63;5100042;27;62205;-76
2022/01/18 03:08:05;;;;;;;;;35.00;24.75;;;;;10.13;69.66;103498.00;5082388;28;63894;-77
2022/01/18 03:10:31;;;;;;;;;36.25;26.75;;;;;10.06;70.15;103492.97;5083738;28;61826;-76
2022/01/18 03:12:57;;;;;;;;;28.25;22.75;;;;;10.11;69.75;103494.34;5083845;28;61706;-77
2022/01/18 03:15:22;;;;;;;;;36.75;22.00;;;;;10.15;70.28;103492.88;5084364;28;62159;-76
2022/01/18 03:17:48;;;;;;;;;26.50;19.75;;;;;10.18;69.81;103486.22;5083620;28;61874;-76
2022/01/18 03:20:15;;;;;;;;;27.00;24.75;;;;;10.21;69.88;103489.09;5084090;28;62174;-77
2022/01/18 03:22:41;;;;;;;;;28.00;23.00;;;;;10.25;69.09;103482.44;5084295;28;62112;-76
2022/01/18 03:25:52;;;;;;;;;25.75;21.50;;;;;10.28;69.41;103480.06;5083276;27;61962;-76
2022/01/18 03:28:05;;;;;;;;;22.75;19.00;;;;;10.31;69.39;103471.59;5081182;27;61832;-76
2022/01/18 03:30:43;;;;;;;;;26.00;21.75;;;;;10.29;68.73;103463.56;5084422;27;62087;-76
2022/01/18 03:33:11;;;;;;;;;29.25;25.75;;;;;10.26;69.15;103470.22;5084139;28;61977;-76
2022/01/18 03:35:38;;;;;;;;;28.75;22.25;;;;;10.23;69.13;103452.50;5084233;28;61715;-77
2022/01/18 03:38:04;;;;;;;;;23.25;19.75;;;;;10.27;69.17;103462.47;5083169;28;61924;-76
2022/01/18 03:40:30;;;;;;;;;22.50;17.25;;;;;10.30;69.25;103470.66;5083507;28;61915;-76
2022/01/18 03:42:57;;;;;;;;;23.75;21.25;;;;;10.27;69.57;103456.31;5083663;28;62216;-77
2022/01/18 03:45:28;;;;;;;;;34.00;25.25;;;;;10.32;69.25;103460.28;5084101;28;61975;-77
2022/01/18 03:47:58;;;;;;;;;34.00;22.00;;;;;10.33;69.41;103465.69;5082934;28;61887;-76
2022/01/18 03:50:24;;;;;;;;;29.50;25.75;;;;;10.37;69.56;103470.44;5083783;28;61779;-76
2022/01/18 03:52:50;;;;;;;;;25.50;22.75;;;;;10.34;68.98;103478.00;5099055;27;61796;-76
2022/01/18 03:55:18;;;;;;;;;33.00;23.50;;;;;10.33;69.54;103468.31;5082945;28;61928;-76
2022/01/18 03:57:44;;;;;;;;;40.75;23.00;;;;;10.21;68.89;103469.81;5083223;28;62104;-77
2022/01/18 04:00:16;;;;;;;;;41.25;25.50;;;;;10.15;69.70;103459.66;5083540;28;62028;-76
2022/01/18 04:02:41;;;;;;;;;29.00;24.75;;;;;10.18;69.32;103461.69;5083204;28;62043;-76
2022/01/18 04:05:08;;;;;;;;;28.75;21.50;;;;;10.21;69.81;103459.31;5082841;28;62149;-76
2022/01/18 04:07:33;;;;;;;;;33.75;23.50;;;;;10.22;69.24;103459.47;5081731;28;63799;-77
2022/01/18 04:09:59;;;;;;;;;38.00;29.25;;;;;10.22;69.30;103456.84;5082664;28;61735;-76
2022/01/18 04:12:25;;;;;;;;;35.00;23.25;;;;;10.19;69.71;103460.88;5083444;28;61697;-76
2022/01/18 04:14:50;;;;;;;;;37.00;27.50;;;;;10.17;69.63;103459.81;5083327;28;62331;-76
2022/01/18 04:27:54;;;;;;;;;34.00;28.75;;;;;10.05;69.85;103467.53;5082798;28;62523;-76
2022/01/18 04:30:21;;;;;;;;;40.50;28.75;;;;;10.02;70.26;103469.88;5083186;28;61866;-76
2022/01/18 04:32:47;;;;;;;;;40.00;25.00;;;;;9.99;70.51;103465.25;5083038;27;61779;-77
2022/01/18 04:35:12;;;;;;;;;38.50;29.75;;;;;9.98;70.37;103460.81;5082760;28;61823;-77
2022/01/18 04:37:38;;;;;;;;;33.75;26.25;;;;;9.93;70.42;103466.41;5081729;28;61997;-76
2022/01/18 04:40:11;;;;;;;;;33.50;22.75;;;;;9.87;70.25;103472.03;5082718;28;61762;-77
2022/01/18 04:43:00;;;;;;;;;38.25;29.25;;;;;9.88;70.24;103466.00;5083183;28;61811;-77
2022/01/18 04:51:00;;;;;;;;;44.75;30.75;;;;;9.91;70.04;103454.88;5082952;28;61933;-76
2022/01/18 04:53:29;;;;;;;;;41.25;29.25;;;;;9.94;70.57;103460.38;5082137;28;62251;-77
2022/01/18 04:55:56;;;;;;;;;36.75;27.25;;;;;9.98;70.44;103455.56;5082650;28;61753;-77
2022/01/18 04:58:24;;;;;;;;;34.25;27.50;;;;;9.94;70.17;103455.13;5080657;28;64375;-76
2022/01/18 05:00:52;;;;;;;;;38.25;27.25;;;;;9.86;70.56;103458.78;5082751;27;61779;-76
2022/01/18 05:03:18;;;;;;;;;34.25;26.00;;;;;9.89;70.39;103453.81;5082023;28;61789;-74
2022/01/18 05:05:44;;;;;;;;;35.75;29.75;;;;;9.87;70.25;103447.50;5082169;28;62065;-76
2022/01/18 05:08:13;;;;;;;;;35.50;27.75;;;;;9.95;70.39;103454.38;5082092;28;61747;-76
2022/01/18 05:10:43;;;;;;;;;32.00;21.75;;;;;9.94;70.19;103466.56;5081003;28;61827;-77
2022/01/18 05:13:21;;;;;;;;;32.50;26.75;;;;;9.98;70.25;103458.19;5082741;28;61889;-76
2022/01/18 05:15:54;;;;;;;;;31.75;21.75;;;;;9.99;69.67;103457.41;5082821;28;61891;-77
2022/01/18 05:22:57;;;;;;;;;35.75;24.50;;;;;9.97;69.67;103461.59;5082124;28;61966;-76
2022/01/18 05:23:39;;;;;;;;;36.50;25.75;;;;;9.93;69.93;103454.22;5074605;28;61895;-76
2022/01/18 05:26:06;;;;;;;;;39.75;26.50;;;;;9.91;69.66;103458.41;5082206;28;61887;-76
2022/01/18 05:28:32;;;;;;;;;36.25;26.50;;;;;9.91;70.37;103450.53;5080195;28;61979;-77
2022/01/18 05:30:59;;;;;;;;;36.75;29.75;;;;;9.96;70.00;103454.50;5082438;28;61951;-77
2022/01/18 05:33:26;;;;;;;;;47.00;36.75;;;;;9.94;69.71;103456.06;5081978;28;61757;-76
2022/01/18 05:35:52;;;;;;;;;40.25;30.00;;;;;9.96;70.08;103448.31;5083069;28;61725;-76
2022/01/18 05:38:17;;;;;;;;;48.25;33.75;;;;;9.99;70.57;103444.28;5084562;27;61796;-75
2022/01/18 05:40:43;;;;;;;;;48.50;35.00;;;;;9.99;69.66;103443.38;5085910;27;61896;-76
2022/01/18 05:43:08;;;;;;;;;46.50;33.50;;;;;9.92;70.33;103440.94;5085883;27;61942;-76
2022/01/18 05:45:34;;;;;;;;;38.00;28.00;;;;;9.90;70.04;103432.97;5085411;27;61768;-77
2022/01/18 05:47:59;;;;;;;;;32.00;26.75;;;;;9.88;70.02;103431.00;5085295;28;61973;-77
2022/01/18 05:50:25;;;;;;;;;41.00;31.50;;;;;9.87;70.11;103440.53;5084272;27;61900;-77
2022/01/18 05:52:50;;;;;;;;;38.00;28.50;;;;;9.86;70.27;103437.81;5085696;28;61935;-77
2022/01/18 05:55:16;;;;;;;;;37.25;30.50;;;;;9.85;70.19;103430.69;5085575;27;61768;-76
2022/01/18 05:57:42;;;;;;;;;70.67;55.00;;;;;9.84;70.06;103429.78;5084420;28;63449;-77
2022/01/18 06:00:12;;;;;;;;;49.25;37.50;;;;;9.91;70.45;103436.50;5085541;28;62042;-76
2022/01/18 06:07:51;;;;;;;;;34.75;27.25;;;;;9.90;69.57;103453.97;5084848;28;61928;-77
2022/01/18 06:10:17;;;;;;;;;36.25;27.25;;;;;9.89;69.51;103448.56;5085240;27;61744;-78
2022/01/18 06:12:42;;;;;;;;;31.75;24.00;;;;;9.89;69.71;103436.34;5083831;28;61722;-77
2022/01/18 06:15:08;;;;;;;;;27.50;24.75;;;;;9.92;69.34;103444.53;5085744;27;61696;-78
2022/01/18 06:17:33;;;;;;;;;33.75;29.00;;;;;9.98;69.20;103452.00;5084349;27;62052;-77
2022/01/18 06:19:59;;;;;;;;;32.50;25.75;;;;;9.99;69.73;103448.63;5084665;27;61930;-78
2022/01/18 06:22:25;;;;;;;;;35.00;22.50;;;;;10.00;69.47;103456.63;5083783;28;61889;-77
2022/01/18 06:24:50;;;;;;;;;23.25;21.00;;;;;10.00;69.58;103458.31;5085201;28;61733;-78
2022/01/18 06:27:16;;;;;;;;;30.75;26.50;;;;;10.03;69.05;103464.75;5084275;27;61972;-79
2022/01/18 06:29:42;;;;;;;;;35.50;22.00;;;;;10.04;69.14;103461.34;5083729;28;62099;-77
2022/01/18 06:32:08;;;;;;;;;54.50;39.75;;;;;10.05;69.38;103467.53;5085008;27;62095;-77
2022/01/18 06:34:34;;;;;;;;;58.50;42.00;;;;;10.03;69.15;103467.38;5083084;28;62281;-77
2022/01/18 06:36:59;;;;;;;;;43.00;31.25;;;;;10.04;68.56;103471.84;5072099;27;61773;-77
2022/01/18 06:39:25;;;;;;;;;33.25;26.25;;;;;10.03;68.83;103464.75;5084125;27;62038;-76
2022/01/18 06:41:51;;;;;;;;;36.50;29.75;;;;;10.06;69.28;103471.06;5100703;27;61925;-76
2022/01/18 06:44:17;;;;;;;;;42.00;30.50;;;;;10.06;69.21;103465.81;5077653;27;61777;-78
2022/01/18 06:46:44;;;;;;;;;33.00;25.25;;;;;10.02;69.28;103470.78;5071958;27;63039;-78
2022/01/18 06:49:09;;;;;;;;;32.50;27.00;;;;;10.08;69.36;103473.03;5084791;27;62212;-78
2022/01/18 06:51:36;;;;;;;;;32.50;22.25;;;;;10.12;69.14;103475.16;5084219;28;61876;-77
2022/01/18 06:54:03;;;;;;;;;40.25;26.50;;;;;10.13;68.96;103471.78;5084547;28;62206;-77
2022/01/18 06:56:28;;;;;;;;;38.75;24.75;;;;;10.09;69.00;103469.66;5083377;28;61787;-78
2022/01/18 06:58:54;;;;;;;;;31.75;25.25;;;;;10.15;69.17;103479.75;5082291;27;61890;-76
2022/01/18 07:01:20;;;;;;;;;29.00;22.50;;;;;10.14;69.16;103478.84;5097892;27;61813;-77
2022/01/18 07:03:48;;;;;;;;;37.50;28.50;;;;;10.12;69.19;103476.88;5063240;28;62038;-78
2022/01/18 07:06:14;;;;;;;;;35.00;28.75;;;;;10.13;68.92;103477.03;5063216;28;62497;-77
2022/01/18 07:08:40;;;;;;;;;37.75;29.25;;;;;10.06;68.74;103468.44;5064100;28;61815;-77
2022/01/18 07:11:06;;;;;;;;;40.25;30.00;;;;;9.88;69.36;103476.50;5062710;28;61636;-77
2022/01/18 07:13:31;;;;;;;;;41.00;29.50;;;;;9.77;69.85;103467.66;5064115;28;62272;-77
2022/01/18 07:15:57;;;;;;;;;32.75;28.00;;;;;9.65;69.98;103458.66;5063020;28;62824;-77
2022/01/18 07:18:23;;;;;;;;;35.75;28.50;;;;;9.63;70.20;103455.91;5078560;28;62168;-77
2022/01/18 07:20:48;;;;;;;;;35.75;24.50;;;;;9.52;71.03;103458.34;5063934;28;61847;-77
2022/01/18 07:23:14;;;;;;;;;27.00;15.00;;;;;9.52;70.97;103467.13;5062808;28;61924;-76
2022/01/18 07:25:44;;;;;;;;;39.75;27.25;;;;;9.62;71.10;103463.66;5077702;28;63193;-77
2022/01/18 07:28:10;;;;;;;;;42.00;29.25;;;;;9.65;70.64;103450.81;5063465;28;61720;-77
2022/01/18 07:30:37;;;;;;;;;53.50;39.50;;;;;9.58;70.78;103456.28;5063488;28;61741;-75
2022/01/18 07:33:03;;;;;;;;;44.00;31.50;;;;;9.60;70.85;103447.78;5063625;28;61966;-78
2022/01/18 07:35:31;;;;;;;;;36.75;31.25;;;;;9.69;70.55;103447.69;5095064;27;63037;-79
2022/01/18 07:37:59;;;;;;;;;40.75;28.75;;;;;9.76;70.59;103447.44;5087851;27;61843;-79
2022/01/18 07:40:24;;;;;;;;;37.00;27.00;;;;;9.76;70.61;103443.91;5083187;28;62006;-79
2022/01/18 07:42:50;;;;;;;;;39.00;33.25;;;;;9.74;70.18;103433.28;5082369;28;61858;-79
2022/01/18 07:45:15;;;;;;;;;45.00;36.00;;;;;9.75;70.38;103435.13;5097190;27;64035;-79
2022/01/18 07:47:41;;;;;;;;;45.00;30.00;;;;;9.80;69.76;103432.91;5082107;28;62124;-77
2022/01/18 07:50:07;;;;;;;;;48.75;32.50;;;;;9.79;69.91;103432.00;5082990;27;61758;-76
2022/01/18 07:52:35;;;;;;;;;34.00;27.25;;;;;9.58;70.04;103440.53;5082440;27;61768;-76
2022/01/18 07:55:02;;;;;;;;;39.00;30.50;;;;;9.45;71.11;103442.81;5097004;27;61998;-77
2022/01/18 07:57:27;;;;;;;;;48.50;33.00;;;;;9.36;70.51;103450.75;5081168;28;61977;-77
2022/01/18 07:59:53;;;;;;;;;43.00;26.50;;;;;9.32;71.21;103441.69;5089152;27;61894;-77
2022/01/18 08:02:18;;;;;;;;;44.00;28.25;;;;;9.21;71.31;103451.19;5091424;27;61944;-75
2022/01/18 08:04:44;;;;;;;;;41.75;28.50;;;;;9.24;71.36;103441.78;5112386;27;63644;-79
2022/01/18 08:07:09;;;;;;;;;35.75;34.50;;;;;9.26;71.56;103435.88;5103522;27;62073;-79
2022/01/18 08:09:36;;;;;;;;;42.50;29.75;;;;;9.23;71.35;103432.06;5119547;27;62074;-79
2022/01/18 08:12:03;;;;;;;;;36.25;27.25;;;;;9.27;71.25;103424.59;5119667;27;61883;-79
2022/01/18 08:14:31;;;;;;;;;35.00;26.25;;;;;9.21;71.45;103426.66;5102569;27;62650;-79
2022/01/18 08:17:00;;;;;;;;;45.25;33.75;;;;;9.34;71.79;103427.03;5085584;27;61882;-78
2022/01/18 08:19:30;;;;;;;;;39.75;36.25;;;;;9.42;70.88;103423.38;5083255;27;61894;-79
2022/01/18 08:21:56;;;;;;;;;34.25;28.25;;;;;9.32;70.62;103428.59;5099193;27;62178;-80
2022/01/18 08:24:22;;;;;;;;;57.00;34.75;;;;;9.33;71.09;103429.50;5097337;27;63643;-80
2022/01/18 08:26:47;;;;;;;;;58.50;34.00;;;;;9.29;70.95;103423.06;5078937;28;61883;-79
2022/01/18 08:29:13;;;;;;;;;48.75;32.50;;;;;9.31;71.30;103424.13;5080856;28;61950;-80
2022/01/18 08:31:40;;;;;;;;;48.75;32.75;;;;;9.44;71.18;103423.53;5097695;27;61793;-79
2022/01/18 08:34:09;;;;;;;;;43.75;34.75;;;;;9.50;70.66;103423.19;5080335;28;62103;-80
2022/01/18 08:36:36;;;;;;;;;51.75;33.25;;;;;9.62;70.54;103426.94;5082764;28;61923;-80
2022/01/18 08:39:03;;;;;;;;;54.00;36.50;;;;;9.66;70.93;103415.00;5080873;28;61859;-79
2022/01/18 08:41:30;;;;;;;;;43.25;33.75;;;;;9.79;70.29;103424.13;5083171;27;61631;-80
2022/01/18 08:43:55;;;;;;;;;47.75;37.50;;;;;9.86;70.12;103433.47;5096312;27;65325;-79
2022/01/18 08:46:22;;;;;;;;;59.50;42.00;;;;;9.89;69.86;103438.06;5081184;27;62172;-79
2022/01/18 08:48:49;;;;;;;;;61.33;44.33;;;;;9.97;70.17;103440.59;5092661;27;62089;-79
2022/01/18 08:51:15;;;;;;;;;59.00;43.25;;;;;10.02;69.77;103444.53;5080434;27;61830;-77
2022/01/18 08:53:42;;;;;;;;;60.00;39.50;;;;;9.88;69.27;103439.78;5079619;27;62100;-77
2022/01/18 08:56:08;;;;;;;;;54.50;42.25;;;;;9.88;69.90;103436.25;5080412;27;61858;-76
2022/01/18 08:58:34;;;;;;;;;56.25;43.00;;;;;9.78;69.98;103434.47;5080454;27;61795;-76
2022/01/18 09:01:01;;;;;;;;;51.25;38.25;;;;;9.86;69.89;103436.09;5088585;27;61940;-76
2022/01/18 09:03:27;;;;;;;;;54.25;39.50;;;;;9.90;69.76;103434.69;5095956;27;63658;-78
2022/01/18 09:05:53;;;;;;;;;63.00;46.00;;;;;9.83;70.05;103435.81;5087651;27;61993;-75
2022/01/18 09:08:20;;;;;;;;;55.25;39.00;;;;;9.87;70.19;103430.03;5080914;27;61764;-75
2022/01/18 09:10:47;;;;;;;;;37.75;29.50;;;;;9.87;69.50;103430.03;5096840;27;61829;-76
2022/01/18 09:13:16;;;;;;;;;53.75;40.50;;;;;9.86;69.46;103432.56;5079513;28;62622;-76
2022/01/18 09:15:43;;;;;;;;;46.50;38.50;;;;;9.84;69.51;103432.41;5078081;28;61934;-75
2022/01/18 09:18:09;;;;;;;;;54.75;40.25;;;;;9.90;69.72;103430.34;5081476;28;61863;-78
2022/01/18 09:20:39;;;;;;;;;47.25;37.25;;;;;10.10;69.56;103437.34;5080982;27;61868;-77
2022/01/18 09:23:05;;;;;;;;;50.50;37.25;;;;;10.10;68.09;103423.31;5080053;27;62671;-77
2022/01/18 09:25:32;;;;;;;;;56.50;40.50;;;;;10.03;68.17;103430.66;5086004;27;61806;-77
2022/01/18 09:27:58;;;;;;;;;51.50;40.75;;;;;9.98;68.07;103429.34;5081581;27;62099;-77
2022/01/18 09:30:26;;;;;;;;;55.00;44.67;;;;;10.03;68.50;103432.34;5082308;28;62130;-78
2022/01/18 09:32:54;;;;;;;;;70.67;48.00;;;;;10.01;68.48;103433.94;5081601;28;61816;-78
2022/01/18 09:35:20;;;;;;;;;57.00;42.25;;;;;9.93;68.83;103435.84;5076244;28;62052;-78
2022/01/18 09:37:46;;;;;;;;;58.67;43.33;;;;;10.01;68.92;103440.09;5082705;27;61966;-80
2022/01/18 09:40:15;;;;;;;;;52.00;43.50;;;;;10.10;68.36;103436.44;5080180;27;61949;-79
2022/01/18 09:42:43;;;;;;;;;41.25;37.00;;;;;10.07;68.58;103423.03;5080218;28;62529;-80
2022/01/18 09:45:12;;;;;;;;;60.00;42.00;;;;;10.04;68.94;103421.97;5096964;27;62044;-80
2022/01/18 09:47:40;;;;;;;;;54.00;41.00;;;;;9.98;68.76;103408.34;5081462;28;61808;-80
2022/01/18 09:50:08;;;;;;;;;53.50;41.50;;;;;10.06;69.66;103427.38;5081975;28;61912;-80
2022/01/18 09:52:33;;;;;;;;;58.75;43.50;;;;;10.10;68.98;103428.56;5081011;27;61891;-80
2022/01/18 09:54:59;;;;;;;;;42.00;38.25;;;;;10.08;69.29;103419.66;5081516;28;62087;-80
2022/01/18 09:57:25;;;;;;;;;59.50;43.00;;;;;10.08;69.45;103425.81;5080866;28;61924;-80
2022/01/18 09:59:50;;;;;;;;;63.00;46.33;;;;;10.11;69.74;103428.72;5097464;27;61954;-80
2022/01/18 10:02:16;;;;;;;;;60.50;49.75;;;;;10.15;69.59;103420.31;5096469;27;62033;-81
2022/01/18 10:04:44;;;;;;;;;61.33;47.33;;;;;10.24;70.27;103425.47;5081193;28;61975;-80
2022/01/18 10:07:10;;;;;;;;;72.67;47.00;;;;;10.34;70.19;103429.84;5097427;27;62092;-80
2022/01/18 10:09:37;;;;;;;;;64.00;50.67;;;;;10.47;69.92;103426.59;5097493;27;62462;-80
2022/01/18 10:12:17;;;;;;;;;87.33;64.33;;;;;10.67;70.87;103423.06;5096078;27;63546;-81
2022/01/18 10:14:51;;;;;;;;;69.67;50.67;;;;;10.83;71.13;103418.34;5081241;28;62022;-80
2022/01/18 10:17:36;;;;;;;;;60.50;42.00;;;;;10.99;71.76;103420.56;5080564;28;62069;-79
2022/01/18 10:20:16;;;;;;;;;57.25;41.25;;;;;11.17;71.54;103406.38;5081106;27;61737;-79
2022/01/18 10:22:48;;;;;;;;;44.00;33.75;;;;;11.31;71.61;103415.44;5081160;27;62587;-79
2022/01/18 10:25:21;;;;;;;;;52.00;36.50;;;;;11.48;71.57;103405.38;5099253;27;61937;-79
2022/01/18 10:27:51;;;;;;;;;49.25;36.00;;;;;11.65;71.42;103405.03;5082924;28;61812;-79
2022/01/18 10:30:31;;;;;;;;;41.25;30.50;;;;;11.77;71.26;103397.25;5083664;28;61893;-79
2022/01/18 10:33:16;;;;;;;;;36.25;34.50;;;;;11.88;71.08;103393.81;5084419;27;62075;-79
2022/01/18 10:36:09;;;;;;;;;20.00;20.00;;;;;12.05;71.02;103387.28;5081227;27;61940;-79
2022/01/18 10:38:36;;;;;;;;;39.75;30.50;;;;;12.14;70.71;103373.94;5079191;28;61978;-81
2022/01/18 10:41:30;;;;;;;;;32.75;30.00;;;;;12.30;70.77;103376.03;5084350;28;61723;-80
2022/01/18 10:44:15;;;;;;;;;36.75;30.25;;;;;12.42;70.30;103370.03;5084020;27;62516;-80
2022/01/18 10:46:42;;;;;;;;;36.00;27.75;;;;;12.50;69.99;103357.47;5081513;27;62209;-79
2022/01/18 10:49:09;;;;;;;;;32.75;28.50;;;;;12.63;70.17;103362.88;5083817;27;62007;-80
2022/01/18 10:51:42;;;;;;;;;41.00;30.25;;;;;12.75;70.17;103360.28;5084529;28;62113;-80
2022/01/18 10:54:10;;;;;;;;;44.50;28.75;;;;;12.86;69.67;103340.94;5082916;27;61879;-80
2022/01/18 10:56:46;;;;;;;;;44.00;33.50;;;;;12.98;69.42;103337.38;5081889;28;61961;-80
2022/01/18 10:59:25;;;;;;;;;26.50;25.00;;;;;13.06;69.46;103323.97;5081015;28;61725;-80
2022/01/18 11:02:15;;;;;;;;;42.50;30.75;;;;;13.18;69.37;103320.44;5106965;27;61927;-80
2022/01/18 11:04:43;;;;;;;;;47.50;31.50;;;;;13.29;68.63;103325.75;5078176;28;61969;-80
2022/01/18 11:07:09;;;;;;;;;36.75;28.00;;;;;13.35;69.03;103321.75;5080942;28;61729;-79
2022/01/18 11:09:35;;;;;;;;;39.00;28.25;;;;;13.39;68.76;103307.94;5082055;27;61886;-80
2022/01/18 11:12:01;;;;;;;;;38.50;25.75;;;;;13.49;68.34;103306.09;5082488;28;61914;-80
2022/01/18 11:14:29;;;;;;;;;35.75;24.00;;;;;13.54;67.74;103293.25;5091251;27;63722;-81
2022/01/18 11:16:57;;;;;;;;;24.00;21.25;;;;;13.56;67.42;103296.94;5097451;27;61987;-80
2022/01/18 11:21:52;;;;;;;;;28.25;22.00;;;;;13.81;67.61;103288.13;5081582;27;62024;-80
2022/01/18 11:24:19;;;;;;;;;31.25;25.25;;;;;13.90;67.55;103287.06;5081821;27;61725;-79
2022/01/18 11:26:47;;;;;;;;;25.00;20.50;;;;;14.00;67.25;103272.78;5098465;27;61853;-82
2022/01/18 11:29:16;;;;;;;;;30.00;24.75;;;;;14.02;66.04;103260.59;5081632;27;61814;-79
2022/01/18 11:31:47;;;;;;;;;22.00;14.25;;;;;14.13;65.90;103263.97;5081769;28;62060;-78
2022/01/18 11:34:21;;;;;;;;;25.50;21.00;;;;;14.23;65.62;103260.28;5081703;28;61791;-78
2022/01/18 11:36:50;;;;;;;;;22.50;18.25;;;;;14.42;65.44;103246.59;5105232;27;62021;-78
2022/01/18 11:39:18;;;;;;;;;11.75;8.50;;;;;14.52;64.79;103242.03;5104049;27;61839;-79
2022/01/18 11:41:44;;;;;;;;;25.75;23.75;;;;;14.55;64.47;103238.72;5099339;27;62300;-78
2022/01/18 11:44:18;;;;;;;;;24.75;19.50;;;;;14.75;65.21;103233.84;5082218;28;62744;-79
2022/01/18 11:46:52;;;;;;;;;28.75;20.75;;;;;14.96;64.85;103234.38;5081281;28;62181;-78
2022/01/18 11:49:21;;;;;;;;;24.50;19.50;;;;;15.08;63.37;103235.16;5079725;28;62828;-78
2022/01/18 11:51:52;;;;;;;;;27.00;21.50;;;;;15.23;63.31;103230.88;5083369;27;61761;-78
2022/01/18 11:57:24;;;;;;;;;26.00;20.00;;;;;15.42;61.90;103217.06;5062409;28;61793;-78
2022/01/18 11:59:59;;;;;;;;;23.25;18.00;;;;;15.48;61.01;103205.97;5095783;27;61865;-80
2022/01/18 12:02:29;;;;;;;;;22.00;14.75;;;;;15.71;60.49;103212.72;5063028;28;61823;-79
2022/01/18 12:04:57;;;;;;;;;21.75;17.75;;;;;15.89;60.73;103203.28;5062227;28;62842;-82
2022/01/18 12:07:36;;;;;;;;;12.50;10.25;;;;;16.11;59.84;103200.22;5098955;27;62363;-79
2022/01/18 12:10:06;;;;;;;;;14.75;13.00;;;;;16.25;58.78;103197.47;5099251;27;62070;-79
2022/01/18 12:12:46;;;;;;;;;2.25;2.25;;;;;16.41;57.51;103192.28;5081749;28;62293;-76
2022/01/18 12:15:22;;;;;;;;;17.50;13.25;;;;;16.60;57.21;103188.03;5081885;27;62649;-77
2022/01/18 12:17:53;;;;;;;;;11.25;8.25;;;;;16.48;55.57;103180.28;5082316;28;61757;-79
2022/01/18 12:20:43;;;;;;;;;9.75;9.00;;;;;16.62;56.52;103186.38;5081637;27;61819;-81
2022/01/18 12:23:12;;;;;;;;;15.25;10.00;;;;;16.59;55.29;103172.97;5080162;28;61808;-77
2022/01/18 12:26:14;;;;;;;;;12.75;10.00;;;;;16.76;55.59;103170.44;5080695;28;62027;-77